Terminal Aerodrome Forecast
Issued by NWS

Home | Current Version | Previous Version | Text Only | Print | Product List | Glossary On
Versions: 1 2 3 4 5 6 7 8 9 10 11 12 13 14 15 16 17 18 19 20 21 22 23 24 25 26
000
FTUS43 KGLD 261731
TAFMCK
TAF
KMCK 261731Z 2618/2718 11008KT P6SM BKN070
     FM262200 12007KT 6SM -SHRA BR OVC050
      TEMPO 2622/2702 2SM TS BR OVC040CB
     FM270300 07006KT P6SM BKN070
     FM271000 11004KT 3SM BR SCT007 BKN060
      TEMPO 2710/2714 1SM BR BKN005
     FM271600 20004KT P6SM SCT100=

USA.gov is the U.S. government's official web portal to all federal, state and local government web resources and services.